createdAt,value
2023-02-14T00:01:16.119Z,5.24
2023-02-14T00:03:49.617Z,5.15
2023-02-14T00:06:20.054Z,5.06
2023-02-14T00:08:52.417Z,5.01
2023-02-14T00:11:22.634Z,4.92
2023-02-14T00:14:04.621Z,4.87
2023-02-14T00:16:34.463Z,4.81
2023-02-14T00:19:06.854Z,4.74
2023-02-14T00:21:39.771Z,4.71
2023-02-14T00:24:12.091Z,4.68
2023-02-14T00:26:42.252Z,4.66
2023-02-14T00:29:14.196Z,4.63
2023-02-14T00:31:44.389Z,4.60
2023-02-14T00:34:18.114Z,4.55
2023-02-14T00:36:48.601Z,4.51
2023-02-14T00:39:19.081Z,4.48
2023-02-14T00:41:49.309Z,4.43
2023-02-14T00:44:19.447Z,4.41
2023-02-14T00:46:49.256Z,4.39
2023-02-14T00:49:21.657Z,4.37
2023-02-14T00:51:51.426Z,4.36
2023-02-14T00:54:21.214Z,4.33
2023-02-14T00:56:50.980Z,4.30
2023-02-14T00:59:20.980Z,4.26
2023-02-14T01:01:50.734Z,4.22
2023-02-14T01:04:23.115Z,4.18
2023-02-14T01:06:52.853Z,4.16
2023-02-14T01:09:22.621Z,4.11
2023-02-14T01:11:52.387Z,4.06
2023-02-14T01:14:22.184Z,4.03
2023-02-14T01:16:52.040Z,3.95
2023-02-14T01:19:24.508Z,3.92
2023-02-14T01:21:54.289Z,3.88
2023-02-14T01:24:25.263Z,3.86
2023-02-14T01:26:55.052Z,3.88
2023-02-14T01:29:24.823Z,3.93
2023-02-14T01:31:54.620Z,4.00
2023-02-14T01:34:26.991Z,4.07
2023-02-14T01:36:56.986Z,4.12
2023-02-14T01:39:26.759Z,4.18
2023-02-14T01:41:56.783Z,4.21
2023-02-14T01:45:09.430Z,4.25
2023-02-14T01:47:43.613Z,4.28
2023-02-14T01:50:20.184Z,4.30
2023-02-14T01:52:53.876Z,4.28
2023-02-14T01:55:26.623Z,4.28
2023-02-14T01:58:00.452Z,4.29
2023-02-14T02:00:42.968Z,4.33
2023-02-14T02:03:16.379Z,4.34
2023-02-14T02:05:54.001Z,4.36
2023-02-14T02:08:24.239Z,4.36
2023-02-14T02:10:54.001Z,4.33
2023-02-14T02:13:25.680Z,4.31
2023-02-14T02:16:20.645Z,4.26
2023-02-14T02:19:05.547Z,4.24
2023-02-14T02:22:13.795Z,4.25
2023-02-14T02:24:51.447Z,4.18
2023-02-14T02:27:29.193Z,4.08
2023-02-14T02:30:40.249Z,3.97
2023-02-14T02:33:46.556Z,3.78
2023-02-14T02:36:39.289Z,3.67
2023-02-14T02:39:19.827Z,3.55
2023-02-14T02:42:08.982Z,3.50
2023-02-14T02:44:47.711Z,3.47
2023-02-14T02:47:25.393Z,3.46
2023-02-14T02:50:15.999Z,3.45
2023-02-14T02:53:07.117Z,3.44
2023-02-14T02:55:59.266Z,3.43
2023-02-14T02:58:33.482Z,3.45
2023-02-14T03:01:06.489Z,3.47
2023-02-14T03:03:50.550Z,3.50
2023-02-14T03:06:20.305Z,3.54
2023-02-14T03:08:52.693Z,3.58
2023-02-14T03:11:22.571Z,3.60
2023-02-14T03:14:02.692Z,3.64
2023-02-14T03:17:00.371Z,3.67
2023-02-14T03:20:02.558Z,3.69
2023-02-14T03:22:45.519Z,3.68
2023-02-14T03:25:34.722Z,3.72
2023-02-14T03:28:15.043Z,3.72
2023-02-14T03:30:51.859Z,3.73
2023-02-14T03:33:25.958Z,3.74
2023-02-14T03:36:02.234Z,3.75
2023-02-14T03:38:35.966Z,3.75
2023-02-14T03:41:14.176Z,3.75
2023-02-14T03:43:48.035Z,3.73
2023-02-14T03:46:23.300Z,3.68
2023-02-14T03:48:55.729Z,3.66
2023-02-14T03:51:27.172Z,3.61
2023-02-14T03:54:00.943Z,3.58
2023-02-14T03:56:38.502Z,3.53
2023-02-14T03:59:11.828Z,3.49
2023-02-14T04:01:49.344Z,3.46
2023-02-14T04:04:23.150Z,3.49
2023-02-14T04:06:53.210Z,3.50
2023-02-14T04:09:22.960Z,3.54
2023-02-14T04:11:55.359Z,3.55
2023-02-14T04:14:29.510Z,3.56
2023-02-14T04:17:11.766Z,3.57
2023-02-14T04:19:41.524Z,3.57
2023-02-14T04:22:11.314Z,3.57
2023-02-14T04:24:41.213Z,3.55
2023-02-14T04:27:13.646Z,3.56
2023-02-14T04:29:46.053Z,3.54
2023-02-14T04:32:18.281Z,3.55
2023-02-14T04:34:48.792Z,3.58
2023-02-14T04:37:21.494Z,3.59
2023-02-14T04:39:51.271Z,3.62
2023-02-14T04:42:23.733Z,3.63
2023-02-14T04:44:53.505Z,3.64
2023-02-14T04:47:23.507Z,3.65
2023-02-14T04:49:53.479Z,3.66
2023-02-14T04:52:23.341Z,3.67
2023-02-14T04:54:53.158Z,3.66
2023-02-14T04:57:25.601Z,3.68
2023-02-14T04:59:55.354Z,3.66
2023-02-14T05:02:25.177Z,3.65
2023-02-14T05:04:55.142Z,3.64
2023-02-14T05:07:24.907Z,3.62
2023-02-14T05:09:54.696Z,3.63
2023-02-14T05:12:27.063Z,3.63
2023-02-14T05:14:57.771Z,3.63
2023-02-14T05:17:27.617Z,3.61
2023-02-14T05:19:57.366Z,3.60
2023-02-14T05:22:27.140Z,3.57
2023-02-14T05:24:56.887Z,3.53
2023-02-14T05:27:29.315Z,3.48
2023-02-14T05:29:59.142Z,3.41
2023-02-14T05:32:28.891Z,3.35
2023-02-14T05:35:00.987Z,3.32
2023-02-14T05:37:30.896Z,3.32
2023-02-14T05:40:00.658Z,3.34
2023-02-14T05:42:33.134Z,3.36
2023-02-14T05:45:02.923Z,3.36
2023-02-14T05:47:32.667Z,3.37
2023-02-14T05:50:02.435Z,3.38
2023-02-14T05:52:32.399Z,3.39
2023-02-14T05:55:02.234Z,3.39
2023-02-14T05:57:34.640Z,3.38
2023-02-14T06:00:05.632Z,3.38
2023-02-14T06:02:35.664Z,3.36
2023-02-14T06:05:05.433Z,3.36
2023-02-14T06:07:35.204Z,3.33
2023-02-14T06:10:04.976Z,3.29
2023-02-14T06:12:37.437Z,3.28
2023-02-14T06:15:07.964Z,3.28
2023-02-14T06:17:37.807Z,3.28
2023-02-14T06:20:09.814Z,3.28
2023-02-14T06:22:40.119Z,3.27
2023-02-14T06:25:10.319Z,3.27
2023-02-14T06:27:42.779Z,3.27
2023-02-14T06:30:14.881Z,3.27
2023-02-14T06:32:44.750Z,3.25
2023-02-14T06:35:14.602Z,3.25
2023-02-14T06:37:45.450Z,3.25
2023-02-14T06:40:17.080Z,3.24
2023-02-14T06:42:49.506Z,3.23
2023-02-14T06:45:19.359Z,3.23
2023-02-14T06:47:49.219Z,3.24
2023-02-14T06:50:19.207Z,3.23
2023-02-14T06:52:48.994Z,3.21
2023-02-14T06:55:18.993Z,3.22
2023-02-14T06:57:51.362Z,3.21
2023-02-14T07:00:22.846Z,3.22
2023-02-14T07:02:52.796Z,3.21
2023-02-14T07:05:22.896Z,3.21
2023-02-14T07:07:52.863Z,3.21
2023-02-14T07:10:22.803Z,3.19
2023-02-14T07:12:56.180Z,3.20
2023-02-14T07:15:26.310Z,3.19
2023-02-14T07:17:56.558Z,3.18
2023-02-14T07:20:26.385Z,3.18
2023-02-14T07:22:56.611Z,3.19
2023-02-14T07:25:28.411Z,3.17
2023-02-14T07:28:00.837Z,3.19
2023-02-14T07:30:30.813Z,3.18
2023-02-14T07:33:01.007Z,3.20
2023-02-14T07:35:30.815Z,3.21
2023-02-14T07:38:00.578Z,3.21
2023-02-14T07:40:30.398Z,3.21
2023-02-14T07:43:02.976Z,3.22
2023-02-14T07:45:32.812Z,3.23
2023-02-14T07:48:07.834Z,3.22
2023-02-14T07:50:37.816Z,3.21
2023-02-14T07:53:08.677Z,3.19
2023-02-14T07:55:39.734Z,3.20
2023-02-14T07:58:12.139Z,3.20
2023-02-14T08:00:41.913Z,3.21
2023-02-14T08:03:11.748Z,3.24
2023-02-14T08:05:41.857Z,3.28
2023-02-14T08:08:11.647Z,3.29
2023-02-14T08:10:41.434Z,3.32
2023-02-14T08:13:13.832Z,3.36
2023-02-14T08:15:58.484Z,3.39
2023-02-14T08:18:28.886Z,3.45
2023-02-14T08:20:59.133Z,3.46
2023-02-14T08:23:29.261Z,3.54
2023-02-14T08:25:59.264Z,3.58
2023-02-14T08:28:33.375Z,3.63
2023-02-14T08:31:04.138Z,3.66
2023-02-14T08:33:34.156Z,3.70
2023-02-14T08:36:04.065Z,3.74
2023-02-14T08:38:33.859Z,3.78
2023-02-14T08:41:08.002Z,3.79
2023-02-14T08:43:41.048Z,3.83
2023-02-14T08:46:11.227Z,3.84
2023-02-14T08:48:41.351Z,3.89
2023-02-14T08:51:12.644Z,3.97
2023-02-14T08:53:42.862Z,4.01
2023-02-14T08:56:14.536Z,4.06
2023-02-14T08:58:47.052Z,4.12
2023-02-14T09:01:19.727Z,4.22
2023-02-14T09:03:49.888Z,4.31
2023-02-14T09:06:20.282Z,4.41
2023-02-14T09:08:50.077Z,4.50
2023-02-14T09:11:22.451Z,4.60
2023-02-14T09:13:56.067Z,4.70
2023-02-14T09:16:27.140Z,4.81
2023-02-14T09:18:57.801Z,4.91
2023-02-14T09:21:30.712Z,5.03
2023-02-14T09:24:00.936Z,5.16
2023-02-14T09:26:31.162Z,5.29
2023-02-14T09:29:03.769Z,5.41
2023-02-14T09:31:33.682Z,5.54
2023-02-14T09:34:15.980Z,5.64
2023-02-14T09:36:45.776Z,5.74
2023-02-14T09:39:15.556Z,5.83
2023-02-14T09:42:20.775Z,5.94
2023-02-14T09:44:57.075Z,5.99
2023-02-14T09:47:37.056Z,6.06
2023-02-14T09:50:08.922Z,6.16
2023-02-14T09:52:38.813Z,6.26
2023-02-14T09:55:17.576Z,6.36
2023-02-14T09:58:01.357Z,6.44
2023-02-14T10:00:39.541Z,6.49
2023-02-14T10:03:32.577Z,6.55
2023-02-14T10:06:07.848Z,6.61
2023-02-14T10:08:52.180Z,6.69
2023-02-14T10:11:25.718Z,6.75
2023-02-14T10:14:00.388Z,6.82
2023-02-14T10:16:36.779Z,6.89
2023-02-14T10:19:10.586Z,6.94
2023-02-14T10:21:46.442Z,7.00
2023-02-14T10:24:22.332Z,7.07
2023-02-14T10:26:53.430Z,7.12
2023-02-14T10:29:23.576Z,7.17
2023-02-14T10:32:00.727Z,7.22
2023-02-14T10:34:38.426Z,7.27
2023-02-14T10:37:32.135Z,7.32
2023-02-14T10:40:20.829Z,7.37
2023-02-14T10:42:59.114Z,7.43
2023-02-14T10:45:37.960Z,7.47
2023-02-14T10:48:19.943Z,7.51
2023-02-14T10:50:55.576Z,7.57
2023-02-14T10:53:36.625Z,7.62
2023-02-14T10:56:11.548Z,7.70
2023-02-14T10:58:43.010Z,7.75
2023-02-14T11:01:15.606Z,7.79
2023-02-14T11:03:58.647Z,7.84
2023-02-14T11:06:28.487Z,7.87
2023-02-14T11:08:58.312Z,7.91
2023-02-14T11:11:33.191Z,7.96
2023-02-14T11:14:03.094Z,8.01
2023-02-14T11:16:34.533Z,8.06
2023-02-14T11:19:23.592Z,8.13
2023-02-14T11:21:54.897Z,8.17
2023-02-14T11:24:30.516Z,8.24
2023-02-14T11:27:02.824Z,8.31
2023-02-14T11:29:36.118Z,8.36
2023-02-14T11:32:13.451Z,8.42
2023-02-14T11:34:51.217Z,8.49
2023-02-14T11:37:30.279Z,8.55
2023-02-14T11:40:02.545Z,8.61
2023-02-14T11:42:38.766Z,8.66
2023-02-14T11:45:09.843Z,8.74
2023-02-14T11:47:43.002Z,8.82
2023-02-14T11:50:26.165Z,8.89
2023-02-14T11:52:59.238Z,8.95
2023-02-14T11:55:31.408Z,9.01
2023-02-14T11:58:01.933Z,9.09
2023-02-14T12:00:32.482Z,9.15
2023-02-14T12:03:05.668Z,9.22
2023-02-14T12:05:48.765Z,9.29
2023-02-14T12:08:26.608Z,9.34
2023-02-14T12:11:05.543Z,9.41
2023-02-14T12:13:36.487Z,9.47
2023-02-14T12:16:06.464Z,9.53
2023-02-14T12:18:46.560Z,9.61
2023-02-14T12:21:45.124Z,9.68
2023-02-14T12:24:21.534Z,9.73
2023-02-14T12:26:58.280Z,9.77
2023-02-14T12:29:35.642Z,9.82
2023-02-14T12:32:16.056Z,9.89
2023-02-14T12:34:45.890Z,9.92
2023-02-14T12:37:26.559Z,9.99
2023-02-14T12:40:14.360Z,10.04
2023-02-14T12:42:57.429Z,10.09
2023-02-14T12:45:33.466Z,10.14
2023-02-14T12:48:16.609Z,10.21
2023-02-14T12:50:55.505Z,10.27
2023-02-14T12:53:45.636Z,10.34
2023-02-14T12:56:29.346Z,10.40
2023-02-14T12:59:10.850Z,10.45
2023-02-14T13:02:01.508Z,10.51
2023-02-14T13:04:51.244Z,10.55
2023-02-14T13:07:38.374Z,10.60
2023-02-14T13:10:18.344Z,10.65
2023-02-14T13:12:55.557Z,10.68
2023-02-14T13:15:37.458Z,10.73
2023-02-14T13:18:14.022Z,10.76
2023-02-14T13:20:51.724Z,10.80
2023-02-14T13:23:27.682Z,10.83
2023-02-14T13:26:06.789Z,10.88
2023-02-14T13:28:38.969Z,10.91
2023-02-14T13:31:09.407Z,10.95
2023-02-14T13:33:44.010Z,10.98
2023-02-14T13:36:16.332Z,11.01
2023-02-14T13:38:50.244Z,11.05
2023-02-14T13:41:24.407Z,11.08
2023-02-14T13:43:56.484Z,11.07
2023-02-14T13:46:52.200Z,11.11
2023-02-14T13:49:33.301Z,11.13
2023-02-14T13:52:05.350Z,11.15
2023-02-14T13:54:39.026Z,11.18
2023-02-14T13:57:31.810Z,11.21
2023-02-14T14:00:40.540Z,11.24
2023-02-14T14:03:15.472Z,11.27
2023-02-14T14:06:07.588Z,11.32
2023-02-14T14:08:54.462Z,11.31
2023-02-14T14:12:02.526Z,11.32
2023-02-14T14:14:41.331Z,11.35
2023-02-14T14:17:26.393Z,11.36
2023-02-14T14:19:58.099Z,11.34
2023-02-14T14:22:29.279Z,11.35
2023-02-14T14:25:02.388Z,11.34
2023-02-14T14:27:37.789Z,11.35
2023-02-14T14:30:21.151Z,11.37
2023-02-14T14:32:51.901Z,11.35
2023-02-14T14:35:23.954Z,11.36
2023-02-14T14:37:55.796Z,11.37
2023-02-14T14:40:28.929Z,11.38
2023-02-14T14:43:03.456Z,11.39
2023-02-14T14:45:36.275Z,11.41
2023-02-14T14:48:13.803Z,11.42
2023-02-14T14:50:50.445Z,11.42
2023-02-14T14:53:25.667Z,11.43
2023-02-14T14:55:56.075Z,11.44
2023-02-14T14:58:42.040Z,11.46
2023-02-14T15:01:32.664Z,11.45
2023-02-14T15:04:13.796Z,11.45
2023-02-14T15:06:44.846Z,11.47
2023-02-14T15:09:16.901Z,11.47
2023-02-14T15:12:00.963Z,11.48
2023-02-14T15:14:33.344Z,11.48
2023-02-14T15:17:08.170Z,11.50
2023-02-14T15:19:41.894Z,11.48
2023-02-14T15:22:22.784Z,11.50
2023-02-14T15:24:52.843Z,11.49
2023-02-14T15:27:24.695Z,11.51
2023-02-14T15:30:00.178Z,11.51
2023-02-14T15:32:35.548Z,11.50
2023-02-14T15:35:07.944Z,11.48
2023-02-14T15:37:38.136Z,11.49
2023-02-14T15:40:10.545Z,11.47
2023-02-14T15:42:46.468Z,11.46
2023-02-14T15:45:26.213Z,11.46
2023-02-14T15:48:08.670Z,11.45
2023-02-14T15:50:54.951Z,11.43
2023-02-14T15:53:42.109Z,11.44
2023-02-14T15:56:26.808Z,11.44
2023-02-14T15:59:02.850Z,11.42
2023-02-14T16:01:34.233Z,11.40
2023-02-14T16:04:09.909Z,11.39
2023-02-14T16:06:44.754Z,11.36
2023-02-14T16:09:28.990Z,11.33
2023-02-14T16:11:59.375Z,11.26
2023-02-14T16:14:36.870Z,11.19
2023-02-14T16:17:09.267Z,11.12
2023-02-14T16:19:48.279Z,11.06
2023-02-14T16:22:32.204Z,11.02
2023-02-14T16:25:02.028Z,10.95
2023-02-14T16:27:31.970Z,10.93
2023-02-14T16:30:01.799Z,10.90
2023-02-14T16:32:31.943Z,10.87
2023-02-14T16:35:04.503Z,10.85
2023-02-14T16:37:36.162Z,10.77
2023-02-14T16:40:06.674Z,10.70
2023-02-14T16:42:41.764Z,10.66
2023-02-14T16:45:18.403Z,10.59
2023-02-14T16:47:49.571Z,10.55
2023-02-14T16:50:26.525Z,10.53
2023-02-14T16:52:59.133Z,10.47
2023-02-14T16:55:31.573Z,10.42
2023-02-14T16:58:03.920Z,10.36
2023-02-14T17:00:33.971Z,10.31
2023-02-14T17:03:11.159Z,10.25
2023-02-14T17:05:44.289Z,10.21
2023-02-14T17:08:16.416Z,10.18
2023-02-14T17:10:48.686Z,10.15
2023-02-14T17:13:22.215Z,10.11
2023-02-14T17:15:53.286Z,10.08
2023-02-14T17:18:24.581Z,10.01
2023-02-14T17:20:57.520Z,9.94
2023-02-14T17:23:27.940Z,9.86
2023-02-14T17:25:57.800Z,9.78
2023-02-14T17:28:27.847Z,9.71
2023-02-14T17:31:00.460Z,9.62
2023-02-14T17:33:30.600Z,9.56
2023-02-14T17:36:11.936Z,9.51
2023-02-14T17:38:43.570Z,9.45
2023-02-14T17:41:15.306Z,9.39
2023-02-14T17:43:45.557Z,9.34
2023-02-14T17:46:16.263Z,9.29
2023-02-14T17:48:46.397Z,9.25
2023-02-14T17:51:21.095Z,9.21
2023-02-14T17:53:51.302Z,9.15
2023-02-14T17:59:09.572Z,9.05
2023-02-14T18:01:39.529Z,9.01
2023-02-14T18:04:10.394Z,8.97
2023-02-14T18:06:43.295Z,8.96
2023-02-14T18:09:14.193Z,8.94
2023-02-14T18:11:44.626Z,8.93
2023-02-14T18:14:14.380Z,8.92
2023-02-14T18:16:44.384Z,8.87
2023-02-14T18:19:16.066Z,8.85
2023-02-14T18:21:48.615Z,8.83
2023-02-14T18:24:18.447Z,8.82
2023-02-14T18:26:48.686Z,8.78
2023-02-14T18:29:18.446Z,8.75
2023-02-14T18:31:48.293Z,8.73
2023-02-14T18:34:18.098Z,8.70
2023-02-14T18:36:50.438Z,8.64
2023-02-14T18:39:20.232Z,8.58
2023-02-14T18:41:53.274Z,8.52
2023-02-14T18:44:23.609Z,8.48
2023-02-14T18:46:53.361Z,8.43
2023-02-14T18:49:23.370Z,8.38
2023-02-14T18:52:00.682Z,8.34
2023-02-14T18:54:30.528Z,8.31
2023-02-14T18:57:00.296Z,8.30
2023-02-14T18:59:30.180Z,8.27
2023-02-14T19:02:00.049Z,8.24
2023-02-14T19:04:29.871Z,8.19
2023-02-14T19:07:04.560Z,8.15
2023-02-14T19:09:39.120Z,8.10
2023-02-14T19:12:09.836Z,8.02
2023-02-14T19:14:40.902Z,7.98
2023-02-14T19:17:12.060Z,7.93
2023-02-14T19:19:42.452Z,7.88
2023-02-14T19:22:14.841Z,7.85
2023-02-14T19:24:44.952Z,7.80
2023-02-14T19:27:15.115Z,7.72
2023-02-14T19:29:45.072Z,7.66
2023-02-14T19:32:14.962Z,7.59
2023-02-14T19:34:44.765Z,7.53
2023-02-14T19:37:17.120Z,7.49
2023-02-14T19:39:46.938Z,7.45
2023-02-14T19:42:16.826Z,7.41
2023-02-14T19:44:47.491Z,7.36
2023-02-14T19:47:30.934Z,7.32
2023-02-14T19:50:03.735Z,7.28
2023-02-14T19:52:36.228Z,7.26
2023-02-14T19:55:07.624Z,7.22
2023-02-14T19:57:37.397Z,7.18
2023-02-14T20:00:11.394Z,7.14
2023-02-14T20:02:45.902Z,7.12
2023-02-14T20:05:15.763Z,7.07
2023-02-14T20:07:49.316Z,7.03
2023-02-14T20:10:19.698Z,7.00
2023-02-14T20:12:49.744Z,6.96
2023-02-14T20:15:19.573Z,6.92
2023-02-14T20:17:49.451Z,6.89
2023-02-14T20:20:19.410Z,6.87
2023-02-14T20:22:51.863Z,6.84
2023-02-14T20:25:22.361Z,6.81
2023-02-14T20:27:56.502Z,6.79
2023-02-14T20:30:33.789Z,6.75
2023-02-14T20:33:11.375Z,6.72
2023-02-14T20:35:45.187Z,6.71
2023-02-14T20:38:19.682Z,6.69
2023-02-14T20:40:49.590Z,6.68
2023-02-14T20:43:19.458Z,6.65
2023-02-14T20:45:49.634Z,6.63
2023-02-14T20:48:19.947Z,6.61
2023-02-14T20:50:50.041Z,6.59
2023-02-14T20:53:27.789Z,6.59
2023-02-14T20:55:58.079Z,6.56
2023-02-14T20:58:29.579Z,6.55
2023-02-14T21:01:00.397Z,6.53
2023-02-14T21:03:32.501Z,6.49
2023-02-14T21:06:05.746Z,6.47
2023-02-14T21:08:39.407Z,6.42
2023-02-14T21:11:10.161Z,6.37
2023-02-14T21:13:40.289Z,6.32
2023-02-14T21:16:15.125Z,6.27
2023-02-14T21:18:59.429Z,6.22
2023-02-14T21:21:40.922Z,6.18
2023-02-14T21:24:53.214Z,6.13
2023-02-14T21:27:29.056Z,6.07
2023-02-14T21:30:00.534Z,6.02
2023-02-14T21:32:33.494Z,5.98
2023-02-14T21:35:03.749Z,5.95
2023-02-14T21:37:35.475Z,5.92
2023-02-14T21:40:06.450Z,5.90
2023-02-14T21:42:39.077Z,5.89
2023-02-14T21:45:22.129Z,5.85
2023-02-14T21:48:06.906Z,5.82
2023-02-14T21:50:36.756Z,5.80
2023-02-14T21:53:10.172Z,5.77
2023-02-14T21:55:43.049Z,5.74
2023-02-14T21:58:15.559Z,5.72
2023-02-14T22:00:51.131Z,5.71
2023-02-14T22:03:23.946Z,5.68
2023-02-14T22:05:55.187Z,5.64
2023-02-14T22:08:25.059Z,5.62
2023-02-14T22:10:55.202Z,5.59
2023-02-14T22:13:29.869Z,5.56
2023-02-14T22:16:04.682Z,5.52
2023-02-14T22:18:37.738Z,5.48
2023-02-14T22:21:10.049Z,5.44
2023-02-14T22:23:40.825Z,5.40
2023-02-14T22:26:12.775Z,5.38
2023-02-14T22:28:47.171Z,5.35
2023-02-14T22:31:19.188Z,5.31
2023-02-14T22:33:50.179Z,5.29
2023-02-14T22:36:22.385Z,5.27
2023-02-14T22:38:54.887Z,5.23
2023-02-14T22:41:26.956Z,5.18
2023-02-14T22:44:02.012Z,5.16
2023-02-14T22:46:32.112Z,5.12
2023-02-14T22:49:02.223Z,5.08
2023-02-14T22:51:34.870Z,5.06
2023-02-14T22:54:07.417Z,5.03
2023-02-14T22:56:40.789Z,5.02
2023-02-14T22:59:18.286Z,4.98
2023-02-14T23:01:49.544Z,4.95
2023-02-14T23:04:25.031Z,4.93
2023-02-14T23:06:56.532Z,4.92
2023-02-14T23:09:28.437Z,4.88
2023-02-14T23:12:00.725Z,4.87
2023-02-14T23:14:45.597Z,4.83
2023-02-14T23:17:35.794Z,4.78
2023-02-14T23:20:18.326Z,4.77
2023-02-14T23:22:48.967Z,4.73
2023-02-14T23:25:18.998Z,4.72
2023-02-14T23:27:52.272Z,4.67
2023-02-14T23:30:25.064Z,4.64
2023-02-14T23:32:55.738Z,4.59
2023-02-14T23:35:25.713Z,4.56
2023-02-14T23:37:55.583Z,4.53
2023-02-14T23:40:25.478Z,4.49
2023-02-14T23:42:56.653Z,4.46
2023-02-14T23:45:45.049Z,4.44
2023-02-14T23:48:14.947Z,4.40
2023-02-14T23:50:45.253Z,4.37
2023-02-14T23:53:18.120Z,4.33
2023-02-14T23:55:53.964Z,4.30
2023-02-14T23:58:23.840Z,4.26
